Seaton, Texas
Current Conditions -  °F | °C
As of 4:15 PM on Tuesday 25 Nov 2014 (Local Time) from KTPL Reporting Station
Clear Clear  
Wind Chill: 64°   Ceiling: Unl
Heat Index: 64°   Visibility: 10mi
Dew Point: 25°   Wind: 10mph
Humidity: 22%   Direction: 240°WSW
Pressure: 30.19"   Gusts: NA
Location:  31.0795°N, 97.3287°W
Report Text: KTPL 252215Z AUTO 24009KT 10SM CLR 18/M04 A3019 RMK AO1
Loading
Personal Weather Stations






























Interactive Weather Map New forecast layout! Learn more

10-Day Weather Forecast

Advertisements
Track Severe Weather on mobile